sensor_id;sensor_type;location;lat;lon;timestamp;temperature;humidity
11846;DHT22;5982;37.494;-8.758;2023-11-22T00:02:12;11.60;99.90
11846;DHT22;5982;37.494;-8.758;2023-11-22T00:04:41;11.60;99.90
11846;DHT22;5982;37.494;-8.758;2023-11-22T00:07:09;11.60;99.90
11846;DHT22;5982;37.494;-8.758;2023-11-22T00:09:37;11.60;99.90
11846;DHT22;5982;37.494;-8.758;2023-11-22T00:12:05;11.60;99.90
11846;DHT22;5982;37.494;-8.758;2023-11-22T00:14:34;11.60;99.90
11846;DHT22;5982;37.494;-8.758;2023-11-22T00:17:01;11.50;99.90
11846;DHT22;5982;37.494;-8.758;2023-11-22T00:19:29;11.50;99.90
11846;DHT22;5982;37.494;-8.758;2023-11-22T00:21:59;11.50;99.90
11846;DHT22;5982;37.494;-8.758;2023-11-22T00:24:31;11.40;99.90
11846;DHT22;5982;37.494;-8.758;2023-11-22T00:26:59;11.50;99.90
11846;DHT22;5982;37.494;-8.758;2023-11-22T00:29:26;11.40;99.90
11846;DHT22;5982;37.494;-8.758;2023-11-22T00:31:54;11.50;99.90
11846;DHT22;5982;37.494;-8.758;2023-11-22T00:34:22;11.40;99.90
11846;DHT22;5982;37.494;-8.758;2023-11-22T00:36:49;11.40;99.90
11846;DHT22;5982;37.494;-8.758;2023-11-22T00:39:19;11.40;99.90
11846;DHT22;5982;37.494;-8.758;2023-11-22T00:41:48;11.40;99.90
11846;DHT22;5982;37.494;-8.758;2023-11-22T00:44:15;11.50;99.90
11846;DHT22;5982;37.494;-8.758;2023-11-22T00:46:43;11.50;99.90
11846;DHT22;5982;37.494;-8.758;2023-11-22T00:49:12;11.50;99.90
11846;DHT22;5982;37.494;-8.758;2023-11-22T00:51:39;11.50;99.90
11846;DHT22;5982;37.494;-8.758;2023-11-22T00:54:07;11.50;99.90
11846;DHT22;5982;37.494;-8.758;2023-11-22T00:56:36;11.50;99.90
11846;DHT22;5982;37.494;-8.758;2023-11-22T00:59:04;11.50;99.90
11846;DHT22;5982;37.494;-8.758;2023-11-22T01:01:32;11.50;99.90
11846;DHT22;5982;37.494;-8.758;2023-11-22T01:03:59;11.50;99.90
11846;DHT22;5982;37.494;-8.758;2023-11-22T01:06:27;11.50;99.90
11846;DHT22;5982;37.494;-8.758;2023-11-22T01:08:57;11.50;99.90
11846;DHT22;5982;37.494;-8.758;2023-11-22T01:11:25;11.50;99.90
11846;DHT22;5982;37.494;-8.758;2023-11-22T01:13:54;11.60;99.90
11846;DHT22;5982;37.494;-8.758;2023-11-22T01:16:22;11.50;99.90
11846;DHT22;5982;37.494;-8.758;2023-11-22T01:18:50;11.60;99.90
11846;DHT22;5982;37.494;-8.758;2023-11-22T01:21:18;11.60;99.90
11846;DHT22;5982;37.494;-8.758;2023-11-22T01:23:46;11.60;99.90
11846;DHT22;5982;37.494;-8.758;2023-11-22T01:26:14;11.60;99.90
11846;DHT22;5982;37.494;-8.758;2023-11-22T01:28:42;11.60;99.90
11846;DHT22;5982;37.494;-8.758;2023-11-22T01:31:12;11.50;99.90
11846;DHT22;5982;37.494;-8.758;2023-11-22T01:33:40;11.50;99.90
11846;DHT22;5982;37.494;-8.758;2023-11-22T01:36:08;11.60;99.90
11846;DHT22;5982;37.494;-8.758;2023-11-22T01:38:36;11.50;99.90
11846;DHT22;5982;37.494;-8.758;2023-11-22T01:41:05;11.40;99.90
11846;DHT22;5982;37.494;-8.758;2023-11-22T01:43:32;11.40;99.90
11846;DHT22;5982;37.494;-8.758;2023-11-22T01:46:00;11.40;99.90
11846;DHT22;5982;37.494;-8.758;2023-11-22T01:48:30;11.40;99.90
11846;DHT22;5982;37.494;-8.758;2023-11-22T01:50:59;11.30;99.90
11846;DHT22;5982;37.494;-8.758;2023-11-22T01:53:26;11.20;99.90
11846;DHT22;5982;37.494;-8.758;2023-11-22T01:55:54;11.30;99.90
11846;DHT22;5982;37.494;-8.758;2023-11-22T01:58:22;11.20;99.90
11846;DHT22;5982;37.494;-8.758;2023-11-22T02:00:50;11.30;99.90
11846;DHT22;5982;37.494;-8.758;2023-11-22T02:03:18;11.20;99.90
11846;DHT22;5982;37.494;-8.758;2023-11-22T02:05:48;11.20;99.90
11846;DHT22;5982;37.494;-8.758;2023-11-22T02:08:16;11.10;99.90
11846;DHT22;5982;37.494;-8.758;2023-11-22T02:10:44;11.10;99.90
11846;DHT22;5982;37.494;-8.758;2023-11-22T02:13:14;11.00;99.90
11846;DHT22;5982;37.494;-8.758;2023-11-22T02:15:42;11.00;99.90
11846;DHT22;5982;37.494;-8.758;2023-11-22T02:18:12;11.00;99.90
11846;DHT22;5982;37.494;-8.758;2023-11-22T02:20:40;10.90;99.90
11846;DHT22;5982;37.494;-8.758;2023-11-22T02:23:09;10.90;99.90
11846;DHT22;5982;37.494;-8.758;2023-11-22T02:25:37;10.80;99.90
11846;DHT22;5982;37.494;-8.758;2023-11-22T02:28:05;10.80;99.90
11846;DHT22;5982;37.494;-8.758;2023-11-22T02:30:33;10.80;99.90
11846;DHT22;5982;37.494;-8.758;2023-11-22T02:33:01;10.80;99.90
11846;DHT22;5982;37.494;-8.758;2023-11-22T02:35:30;10.80;99.90
11846;DHT22;5982;37.494;-8.758;2023-11-22T02:37:58;10.80;99.90
11846;DHT22;5982;37.494;-8.758;2023-11-22T02:40:27;10.80;99.90
11846;DHT22;5982;37.494;-8.758;2023-11-22T02:42:55;10.80;99.90
11846;DHT22;5982;37.494;-8.758;2023-11-22T02:45:25;10.70;99.90
11846;DHT22;5982;37.494;-8.758;2023-11-22T02:47:53;10.60;99.90
11846;DHT22;5982;37.494;-8.758;2023-11-22T02:50:21;10.60;99.90
11846;DHT22;5982;37.494;-8.758;2023-11-22T02:52:49;10.60;99.90
11846;DHT22;5982;37.494;-8.758;2023-11-22T02:55:16;10.60;99.90
11846;DHT22;5982;37.494;-8.758;2023-11-22T02:57:46;10.60;99.90
11846;DHT22;5982;37.494;-8.758;2023-11-22T03:00:14;10.50;99.90
11846;DHT22;5982;37.494;-8.758;2023-11-22T03:02:44;10.50;99.90
11846;DHT22;5982;37.494;-8.758;2023-11-22T03:05:12;10.50;99.90
11846;DHT22;5982;37.494;-8.758;2023-11-22T03:07:40;10.40;99.90
11846;DHT22;5982;37.494;-8.758;2023-11-22T03:10:09;10.40;99.90
11846;DHT22;5982;37.494;-8.758;2023-11-22T03:12:36;10.40;99.90
11846;DHT22;5982;37.494;-8.758;2023-11-22T03:15:06;10.40;99.90
11846;DHT22;5982;37.494;-8.758;2023-11-22T03:17:34;10.40;99.90
11846;DHT22;5982;37.494;-8.758;2023-11-22T03:20:05;10.40;99.90
11846;DHT22;5982;37.494;-8.758;2023-11-22T03:22:34;10.40;99.90
11846;DHT22;5982;37.494;-8.758;2023-11-22T03:25:02;10.40;99.90
11846;DHT22;5982;37.494;-8.758;2023-11-22T03:27:30;10.40;99.90
11846;DHT22;5982;37.494;-8.758;2023-11-22T03:29:59;10.40;99.90
11846;DHT22;5982;37.494;-8.758;2023-11-22T03:32:28;10.40;99.90
11846;DHT22;5982;37.494;-8.758;2023-11-22T03:34:56;10.40;99.90
11846;DHT22;5982;37.494;-8.758;2023-11-22T03:37:23;10.40;99.90
11846;DHT22;5982;37.494;-8.758;2023-11-22T03:39:51;10.40;99.90
11846;DHT22;5982;37.494;-8.758;2023-11-22T03:42:19;10.40;99.90
11846;DHT22;5982;37.494;-8.758;2023-11-22T03:44:46;10.40;99.90
11846;DHT22;5982;37.494;-8.758;2023-11-22T03:47:14;10.40;99.90
11846;DHT22;5982;37.494;-8.758;2023-11-22T03:49:44;10.40;99.90
11846;DHT22;5982;37.494;-8.758;2023-11-22T03:52:11;10.40;99.90
11846;DHT22;5982;37.494;-8.758;2023-11-22T03:54:39;10.40;99.90
11846;DHT22;5982;37.494;-8.758;2023-11-22T03:57:07;10.40;99.90
11846;DHT22;5982;37.494;-8.758;2023-11-22T03:59:35;10.30;99.90
11846;DHT22;5982;37.494;-8.758;2023-11-22T04:02:03;10.30;99.90
11846;DHT22;5982;37.494;-8.758;2023-11-22T04:04:31;10.30;99.90
11846;DHT22;5982;37.494;-8.758;2023-11-22T04:07:00;10.20;99.90
11846;DHT22;5982;37.494;-8.758;2023-11-22T04:09:28;10.20;99.90
11846;DHT22;5982;37.494;-8.758;2023-11-22T04:11:56;10.10;99.90
11846;DHT22;5982;37.494;-8.758;2023-11-22T04:14:24;10.10;99.90
11846;DHT22;5982;37.494;-8.758;2023-11-22T04:16:52;10.00;99.90
11846;DHT22;5982;37.494;-8.758;2023-11-22T04:19:20;10.00;99.90
11846;DHT22;5982;37.494;-8.758;2023-11-22T04:21:48;9.90;99.90
11846;DHT22;5982;37.494;-8.758;2023-11-22T04:24:17;9.90;99.90
11846;DHT22;5982;37.494;-8.758;2023-11-22T04:26:45;9.90;99.90
11846;DHT22;5982;37.494;-8.758;2023-11-22T04:29:12;9.80;99.90
11846;DHT22;5982;37.494;-8.758;2023-11-22T04:31:41;9.80;99.90
11846;DHT22;5982;37.494;-8.758;2023-11-22T04:34:09;9.70;99.90
11846;DHT22;5982;37.494;-8.758;2023-11-22T04:36:37;9.70;99.90
11846;DHT22;5982;37.494;-8.758;2023-11-22T04:39:05;9.70;99.90
11846;DHT22;5982;37.494;-8.758;2023-11-22T04:41:37;9.70;99.90
11846;DHT22;5982;37.494;-8.758;2023-11-22T04:44:04;9.70;99.90
11846;DHT22;5982;37.494;-8.758;2023-11-22T04:46:32;9.70;99.90
11846;DHT22;5982;37.494;-8.758;2023-11-22T04:49:00;9.70;99.90
11846;DHT22;5982;37.494;-8.758;2023-11-22T04:51:28;9.70;99.90
11846;DHT22;5982;37.494;-8.758;2023-11-22T04:53:56;9.70;99.90
11846;DHT22;5982;37.494;-8.758;2023-11-22T04:56:24;9.80;99.90
11846;DHT22;5982;37.494;-8.758;2023-11-22T04:58:53;9.80;99.90
11846;DHT22;5982;37.494;-8.758;2023-11-22T05:01:22;9.70;99.90
11846;DHT22;5982;37.494;-8.758;2023-11-22T05:03:50;9.70;99.90
11846;DHT22;5982;37.494;-8.758;2023-11-22T05:06:18;9.60;99.90
11846;DHT22;5982;37.494;-8.758;2023-11-22T05:08:46;9.60;99.90
11846;DHT22;5982;37.494;-8.758;2023-11-22T05:11:14;9.60;99.90
11846;DHT22;5982;37.494;-8.758;2023-11-22T05:13:42;9.50;99.90
11846;DHT22;5982;37.494;-8.758;2023-11-22T05:16:11;9.50;99.90
11846;DHT22;5982;37.494;-8.758;2023-11-22T05:18:39;9.40;99.90
11846;DHT22;5982;37.494;-8.758;2023-11-22T05:21:07;9.40;99.90
11846;DHT22;5982;37.494;-8.758;2023-11-22T05:23:34;9.40;99.90
11846;DHT22;5982;37.494;-8.758;2023-11-22T05:26:03;9.40;99.90
11846;DHT22;5982;37.494;-8.758;2023-11-22T05:28:31;9.40;99.90
11846;DHT22;5982;37.494;-8.758;2023-11-22T05:30:59;9.40;99.90
11846;DHT22;5982;37.494;-8.758;2023-11-22T05:33:28;9.40;99.90
11846;DHT22;5982;37.494;-8.758;2023-11-22T05:35:57;9.40;99.90
11846;DHT22;5982;37.494;-8.758;2023-11-22T05:38:25;9.40;99.90
11846;DHT22;5982;37.494;-8.758;2023-11-22T05:40:52;9.30;99.90
11846;DHT22;5982;37.494;-8.758;2023-11-22T05:43:20;9.30;99.90
11846;DHT22;5982;37.494;-8.758;2023-11-22T05:45:52;9.20;99.90
11846;DHT22;5982;37.494;-8.758;2023-11-22T05:48:20;9.10;99.90
11846;DHT22;5982;37.494;-8.758;2023-11-22T05:50:49;9.10;99.90
11846;DHT22;5982;37.494;-8.758;2023-11-22T05:53:17;9.00;99.90
11846;DHT22;5982;37.494;-8.758;2023-11-22T05:55:45;9.00;99.90
11846;DHT22;5982;37.494;-8.758;2023-11-22T05:58:13;9.10;99.90
11846;DHT22;5982;37.494;-8.758;2023-11-22T06:00:42;9.10;99.90
11846;DHT22;5982;37.494;-8.758;2023-11-22T06:03:10;9.20;99.90
11846;DHT22;5982;37.494;-8.758;2023-11-22T06:05:38;9.10;99.90
11846;DHT22;5982;37.494;-8.758;2023-11-22T06:08:07;9.10;99.90
11846;DHT22;5982;37.494;-8.758;2023-11-22T06:10:36;9.10;99.90
11846;DHT22;5982;37.494;-8.758;2023-11-22T06:13:03;9.10;99.90
11846;DHT22;5982;37.494;-8.758;2023-11-22T06:15:31;9.10;99.90
11846;DHT22;5982;37.494;-8.758;2023-11-22T06:17:59;9.10;99.90
11846;DHT22;5982;37.494;-8.758;2023-11-22T06:20:26;9.10;99.90
11846;DHT22;5982;37.494;-8.758;2023-11-22T06:22:54;9.10;99.90
11846;DHT22;5982;37.494;-8.758;2023-11-22T06:25:23;9.10;99.90
11846;DHT22;5982;37.494;-8.758;2023-11-22T06:27:51;9.20;99.90
11846;DHT22;5982;37.494;-8.758;2023-11-22T06:30:19;9.20;99.90
11846;DHT22;5982;37.494;-8.758;2023-11-22T06:32:46;9.20;99.90
11846;DHT22;5982;37.494;-8.758;2023-11-22T06:35:14;9.20;99.90
11846;DHT22;5982;37.494;-8.758;2023-11-22T06:37:43;9.20;99.90
11846;DHT22;5982;37.494;-8.758;2023-11-22T06:40:11;9.30;99.90
11846;DHT22;5982;37.494;-8.758;2023-11-22T06:42:40;9.30;99.90
11846;DHT22;5982;37.494;-8.758;2023-11-22T06:45:08;9.30;99.90
11846;DHT22;5982;37.494;-8.758;2023-11-22T06:47:38;9.30;99.90
11846;DHT22;5982;37.494;-8.758;2023-11-22T06:50:06;9.40;99.90
11846;DHT22;5982;37.494;-8.758;2023-11-22T06:52:36;9.40;99.90
11846;DHT22;5982;37.494;-8.758;2023-11-22T06:55:04;9.40;99.90
11846;DHT22;5982;37.494;-8.758;2023-11-22T06:57:33;9.40;99.90
11846;DHT22;5982;37.494;-8.758;2023-11-22T07:00:02;9.40;99.90
11846;DHT22;5982;37.494;-8.758;2023-11-22T07:02:31;9.40;99.90
11846;DHT22;5982;37.494;-8.758;2023-11-22T07:04:59;9.40;99.90
11846;DHT22;5982;37.494;-8.758;2023-11-22T07:07:28;9.40;99.90
11846;DHT22;5982;37.494;-8.758;2023-11-22T07:09:56;9.40;99.90
11846;DHT22;5982;37.494;-8.758;2023-11-22T07:12:24;9.50;99.90
11846;DHT22;5982;37.494;-8.758;2023-11-22T07:14:52;9.50;99.90
11846;DHT22;5982;37.494;-8.758;2023-11-22T07:17:22;9.40;99.90
11846;DHT22;5982;37.494;-8.758;2023-11-22T07:19:53;9.50;99.90
11846;DHT22;5982;37.494;-8.758;2023-11-22T07:22:20;9.40;99.90
11846;DHT22;5982;37.494;-8.758;2023-11-22T07:24:49;9.30;99.90
11846;DHT22;5982;37.494;-8.758;2023-11-22T07:27:19;9.30;99.90
11846;DHT22;5982;37.494;-8.758;2023-11-22T07:29:48;9.30;99.90
11846;DHT22;5982;37.494;-8.758;2023-11-22T07:32:17;9.30;99.90
11846;DHT22;5982;37.494;-8.758;2023-11-22T07:34:47;9.30;99.90
11846;DHT22;5982;37.494;-8.758;2023-11-22T07:37:15;9.30;99.90
11846;DHT22;5982;37.494;-8.758;2023-11-22T07:39:43;9.40;99.90
11846;DHT22;5982;37.494;-8.758;2023-11-22T07:42:11;9.50;99.90
11846;DHT22;5982;37.494;-8.758;2023-11-22T07:44:39;9.70;99.90
11846;DHT22;5982;37.494;-8.758;2023-11-22T07:47:08;9.90;99.90
11846;DHT22;5982;37.494;-8.758;2023-11-22T07:49:38;9.90;99.90
11846;DHT22;5982;37.494;-8.758;2023-11-22T07:52:09;10.00;99.90
11846;DHT22;5982;37.494;-8.758;2023-11-22T07:54:39;10.50;99.90
11846;DHT22;5982;37.494;-8.758;2023-11-22T07:57:07;11.10;99.90
11846;DHT22;5982;37.494;-8.758;2023-11-22T07:59:34;11.60;99.90
11846;DHT22;5982;37.494;-8.758;2023-11-22T08:02:02;12.00;99.90
11846;DHT22;5982;37.494;-8.758;2023-11-22T08:04:33;12.40;99.90
11846;DHT22;5982;37.494;-8.758;2023-11-22T08:07:03;12.60;99.90
11846;DHT22;5982;37.494;-8.758;2023-11-22T08:09:33;12.40;99.90
11846;DHT22;5982;37.494;-8.758;2023-11-22T08:12:00;12.10;99.90
11846;DHT22;5982;37.494;-8.758;2023-11-22T08:14:28;11.80;99.90
11846;DHT22;5982;37.494;-8.758;2023-11-22T08:16:56;11.70;99.90
11846;DHT22;5982;37.494;-8.758;2023-11-22T08:19:23;11.80;99.90
11846;DHT22;5982;37.494;-8.758;2023-11-22T08:21:53;11.80;99.90
11846;DHT22;5982;37.494;-8.758;2023-11-22T08:24:20;11.80;99.90
11846;DHT22;5982;37.494;-8.758;2023-11-22T08:26:50;11.90;99.90
11846;DHT22;5982;37.494;-8.758;2023-11-22T08:29:17;11.80;99.90
11846;DHT22;5982;37.494;-8.758;2023-11-22T08:31:45;11.90;99.90
11846;DHT22;5982;37.494;-8.758;2023-11-22T08:34:13;11.90;99.90
11846;DHT22;5982;37.494;-8.758;2023-11-22T08:36:42;12.00;99.90
11846;DHT22;5982;37.494;-8.758;2023-11-22T08:39:10;12.10;99.90
11846;DHT22;5982;37.494;-8.758;2023-11-22T08:41:38;12.20;99.90
11846;DHT22;5982;37.494;-8.758;2023-11-22T08:44:07;12.20;99.90
11846;DHT22;5982;37.494;-8.758;2023-11-22T08:46:34;12.20;99.90
11846;DHT22;5982;37.494;-8.758;2023-11-22T08:49:02;12.20;99.90
11846;DHT22;5982;37.494;-8.758;2023-11-22T08:51:32;12.20;99.90
11846;DHT22;5982;37.494;-8.758;2023-11-22T08:54:00;12.30;99.90
11846;DHT22;5982;37.494;-8.758;2023-11-22T08:56:27;12.30;99.90
11846;DHT22;5982;37.494;-8.758;2023-11-22T08:58:55;12.30;99.90
11846;DHT22;5982;37.494;-8.758;2023-11-22T09:01:24;12.40;99.90
11846;DHT22;5982;37.494;-8.758;2023-11-22T09:03:52;12.50;99.90
11846;DHT22;5982;37.494;-8.758;2023-11-22T09:06:20;12.70;99.90
11846;DHT22;5982;37.494;-8.758;2023-11-22T09:08:47;12.70;99.90
11846;DHT22;5982;37.494;-8.758;2023-11-22T09:11:15;12.90;99.90
11846;DHT22;5982;37.494;-8.758;2023-11-22T09:13:45;13.00;99.90
11846;DHT22;5982;37.494;-8.758;2023-11-22T09:16:13;13.10;99.90
11846;DHT22;5982;37.494;-8.758;2023-11-22T09:18:43;13.20;99.90
11846;DHT22;5982;37.494;-8.758;2023-11-22T09:21:11;13.30;99.90
11846;DHT22;5982;37.494;-8.758;2023-11-22T09:23:39;13.40;99.90
11846;DHT22;5982;37.494;-8.758;2023-11-22T09:26:06;13.50;99.90
11846;DHT22;5982;37.494;-8.758;2023-11-22T09:28:34;13.60;99.90
11846;DHT22;5982;37.494;-8.758;2023-11-22T09:31:02;13.60;99.90
11846;DHT22;5982;37.494;-8.758;2023-11-22T09:33:31;13.70;99.90
11846;DHT22;5982;37.494;-8.758;2023-11-22T09:36:00;13.80;99.90
11846;DHT22;5982;37.494;-8.758;2023-11-22T09:38:29;13.70;99.90
11846;DHT22;5982;37.494;-8.758;2023-11-22T09:40:57;13.70;99.90
11846;DHT22;5982;37.494;-8.758;2023-11-22T09:43:28;13.70;99.90
11846;DHT22;5982;37.494;-8.758;2023-11-22T09:45:55;13.70;99.90
11846;DHT22;5982;37.494;-8.758;2023-11-22T09:48:23;13.80;99.90
11846;DHT22;5982;37.494;-8.758;2023-11-22T09:50:54;13.90;99.90
11846;DHT22;5982;37.494;-8.758;2023-11-22T09:53:28;14.10;99.90
11846;DHT22;5982;37.494;-8.758;2023-11-22T09:55:58;14.30;99.90
11846;DHT22;5982;37.494;-8.758;2023-11-22T09:58:27;14.30;99.90
11846;DHT22;5982;37.494;-8.758;2023-11-22T10:00:57;14.30;99.90
11846;DHT22;5982;37.494;-8.758;2023-11-22T10:03:26;14.40;99.90
11846;DHT22;5982;37.494;-8.758;2023-11-22T10:05:54;14.50;99.90
11846;DHT22;5982;37.494;-8.758;2023-11-22T10:08:23;14.70;99.90
11846;DHT22;5982;37.494;-8.758;2023-11-22T10:10:52;14.80;99.90
11846;DHT22;5982;37.494;-8.758;2023-11-22T10:13:20;14.60;99.90
11846;DHT22;5982;37.494;-8.758;2023-11-22T10:15:48;14.60;99.90
11846;DHT22;5982;37.494;-8.758;2023-11-22T10:18:16;14.60;99.90
11846;DHT22;5982;37.494;-8.758;2023-11-22T10:20:45;14.80;99.90
11846;DHT22;5982;37.494;-8.758;2023-11-22T10:23:15;15.10;99.90
11846;DHT22;5982;37.494;-8.758;2023-11-22T10:25:45;15.20;99.90
11846;DHT22;5982;37.494;-8.758;2023-11-22T10:28:16;15.20;99.90
11846;DHT22;5982;37.494;-8.758;2023-11-22T10:30:45;15.30;99.90
11846;DHT22;5982;37.494;-8.758;2023-11-22T10:33:13;15.40;99.90
11846;DHT22;5982;37.494;-8.758;2023-11-22T10:35:42;15.60;99.90
11846;DHT22;5982;37.494;-8.758;2023-11-22T10:38:10;15.80;99.90
11846;DHT22;5982;37.494;-8.758;2023-11-22T10:40:38;15.70;99.90
11846;DHT22;5982;37.494;-8.758;2023-11-22T10:43:06;15.60;99.90
11846;DHT22;5982;37.494;-8.758;2023-11-22T10:45:37;15.70;99.90
11846;DHT22;5982;37.494;-8.758;2023-11-22T10:48:05;15.70;99.90
11846;DHT22;5982;37.494;-8.758;2023-11-22T10:50:35;15.70;99.90
11846;DHT22;5982;37.494;-8.758;2023-11-22T10:53:04;15.90;99.90
11846;DHT22;5982;37.494;-8.758;2023-11-22T10:55:35;16.00;99.90
11846;DHT22;5982;37.494;-8.758;2023-11-22T10:58:04;16.10;99.90
11846;DHT22;5982;37.494;-8.758;2023-11-22T11:00:33;16.30;99.90
11846;DHT22;5982;37.494;-8.758;2023-11-22T11:03:06;16.50;99.90
11846;DHT22;5982;37.494;-8.758;2023-11-22T11:05:37;16.80;99.90
11846;DHT22;5982;37.494;-8.758;2023-11-22T11:08:07;16.80;99.90
11846;DHT22;5982;37.494;-8.758;2023-11-22T11:10:38;16.60;99.90
11846;DHT22;5982;37.494;-8.758;2023-11-22T11:13:06;16.60;99.90
11846;DHT22;5982;37.494;-8.758;2023-11-22T11:15:34;16.50;99.90
11846;DHT22;5982;37.494;-8.758;2023-11-22T11:18:04;16.50;99.90
11846;DHT22;5982;37.494;-8.758;2023-11-22T11:20:32;16.60;99.90
11846;DHT22;5982;37.494;-8.758;2023-11-22T11:23:01;16.70;99.90
11846;DHT22;5982;37.494;-8.758;2023-11-22T11:25:31;16.80;99.90
11846;DHT22;5982;37.494;-8.758;2023-11-22T11:27:59;16.80;99.90
11846;DHT22;5982;37.494;-8.758;2023-11-22T11:30:44;17.00;99.90
11846;DHT22;5982;37.494;-8.758;2023-11-22T11:33:15;17.10;99.90
11846;DHT22;5982;37.494;-8.758;2023-11-22T11:35:46;17.30;99.90
11846;DHT22;5982;37.494;-8.758;2023-11-22T11:38:14;17.30;99.90
11846;DHT22;5982;37.494;-8.758;2023-11-22T11:40:43;17.40;99.90
11846;DHT22;5982;37.494;-8.758;2023-11-22T11:43:12;17.30;99.90
11846;DHT22;5982;37.494;-8.758;2023-11-22T11:45:41;17.30;99.90
11846;DHT22;5982;37.494;-8.758;2023-11-22T11:48:12;17.20;99.90
11846;DHT22;5982;37.494;-8.758;2023-11-22T11:50:42;17.10;99.90
11846;DHT22;5982;37.494;-8.758;2023-11-22T11:53:10;17.20;99.90
11846;DHT22;5982;37.494;-8.758;2023-11-22T11:55:38;17.50;99.90
11846;DHT22;5982;37.494;-8.758;2023-11-22T11:58:06;17.60;99.90
11846;DHT22;5982;37.494;-8.758;2023-11-22T12:00:35;17.90;99.90
11846;DHT22;5982;37.494;-8.758;2023-11-22T12:03:06;17.90;99.90
11846;DHT22;5982;37.494;-8.758;2023-11-22T12:05:36;17.80;99.90
11846;DHT22;5982;37.494;-8.758;2023-11-22T12:08:05;17.90;99.90
11846;DHT22;5982;37.494;-8.758;2023-11-22T12:10:34;18.20;99.90
11846;DHT22;5982;37.494;-8.758;2023-11-22T12:13:02;18.30;99.90
11846;DHT22;5982;37.494;-8.758;2023-11-22T12:15:30;18.50;99.90
11846;DHT22;5982;37.494;-8.758;2023-11-22T12:17:58;18.60;99.90
11846;DHT22;5982;37.494;-8.758;2023-11-22T12:20:26;18.70;99.90
11846;DHT22;5982;37.494;-8.758;2023-11-22T12:22:57;18.80;99.90
11846;DHT22;5982;37.494;-8.758;2023-11-22T12:25:27;18.90;99.90
11846;DHT22;5982;37.494;-8.758;2023-11-22T12:27:55;19.00;99.90
11846;DHT22;5982;37.494;-8.758;2023-11-22T12:30:30;19.00;99.90
11846;DHT22;5982;37.494;-8.758;2023-11-22T12:33:02;19.20;99.90
11846;DHT22;5982;37.494;-8.758;2023-11-22T12:35:31;19.20;99.90
11846;DHT22;5982;37.494;-8.758;2023-11-22T12:37:59;19.20;99.90
11846;DHT22;5982;37.494;-8.758;2023-11-22T12:40:29;19.30;99.90
11846;DHT22;5982;37.494;-8.758;2023-11-22T12:42:58;19.30;99.90
11846;DHT22;5982;37.494;-8.758;2023-11-22T12:45:28;19.30;99.90
11846;DHT22;5982;37.494;-8.758;2023-11-22T12:47:56;19.30;99.90
11846;DHT22;5982;37.494;-8.758;2023-11-22T12:50:32;19.30;99.90
11846;DHT22;5982;37.494;-8.758;2023-11-22T12:53:09;19.40;99.90
11846;DHT22;5982;37.494;-8.758;2023-11-22T12:55:41;19.50;99.90
11846;DHT22;5982;37.494;-8.758;2023-11-22T12:58:10;19.50;99.90
11846;DHT22;5982;37.494;-8.758;2023-11-22T13:00:38;19.40;99.90
11846;DHT22;5982;37.494;-8.758;2023-11-22T13:03:06;19.10;99.90
11846;DHT22;5982;37.494;-8.758;2023-11-22T13:05:35;19.00;99.90
11846;DHT22;5982;37.494;-8.758;2023-11-22T13:08:03;19.20;99.90
11846;DHT22;5982;37.494;-8.758;2023-11-22T13:10:32;19.40;99.90
11846;DHT22;5982;37.494;-8.758;2023-11-22T13:13:01;19.40;99.90
11846;DHT22;5982;37.494;-8.758;2023-11-22T13:15:29;19.60;99.90
11846;DHT22;5982;37.494;-8.758;2023-11-22T13:17:56;19.70;99.90
11846;DHT22;5982;37.494;-8.758;2023-11-22T13:20:24;19.70;99.90
11846;DHT22;5982;37.494;-8.758;2023-11-22T13:22:52;19.70;99.90
11846;DHT22;5982;37.494;-8.758;2023-11-22T13:25:20;19.70;99.90
11846;DHT22;5982;37.494;-8.758;2023-11-22T13:27:49;19.80;99.90
11846;DHT22;5982;37.494;-8.758;2023-11-22T13:30:19;19.90;99.90
11846;DHT22;5982;37.494;-8.758;2023-11-22T13:32:48;20.00;99.90
11846;DHT22;5982;37.494;-8.758;2023-11-22T13:35:16;20.00;99.90
11846;DHT22;5982;37.494;-8.758;2023-11-22T13:37:44;20.00;99.90
11846;DHT22;5982;37.494;-8.758;2023-11-22T13:40:13;20.10;99.90
11846;DHT22;5982;37.494;-8.758;2023-11-22T13:42:43;20.10;99.90
11846;DHT22;5982;37.494;-8.758;2023-11-22T13:45:11;20.20;99.90
11846;DHT22;5982;37.494;-8.758;2023-11-22T13:47:45;20.20;99.90
11846;DHT22;5982;37.494;-8.758;2023-11-22T13:50:14;20.10;99.90
11846;DHT22;5982;37.494;-8.758;2023-11-22T13:52:44;20.10;99.90
11846;DHT22;5982;37.494;-8.758;2023-11-22T13:55:12;19.90;99.90
11846;DHT22;5982;37.494;-8.758;2023-11-22T13:57:42;20.10;99.90
11846;DHT22;5982;37.494;-8.758;2023-11-22T14:00:10;20.10;99.90
11846;DHT22;5982;37.494;-8.758;2023-11-22T14:02:38;20.10;99.90
11846;DHT22;5982;37.494;-8.758;2023-11-22T14:05:09;20.20;99.90
11846;DHT22;5982;37.494;-8.758;2023-11-22T14:07:38;20.20;99.90
11846;DHT22;5982;37.494;-8.758;2023-11-22T14:10:06;20.20;99.90
11846;DHT22;5982;37.494;-8.758;2023-11-22T14:12:36;20.20;99.90
11846;DHT22;5982;37.494;-8.758;2023-11-22T14:15:04;20.30;99.90
11846;DHT22;5982;37.494;-8.758;2023-11-22T14:17:32;20.30;99.90
11846;DHT22;5982;37.494;-8.758;2023-11-22T14:20:00;20.40;99.90
11846;DHT22;5982;37.494;-8.758;2023-11-22T14:22:32;20.40;99.90
11846;DHT22;5982;37.494;-8.758;2023-11-22T14:25:00;20.40;99.90
11846;DHT22;5982;37.494;-8.758;2023-11-22T14:27:28;20.40;99.90
11846;DHT22;5982;37.494;-8.758;2023-11-22T14:29:56;20.50;99.90
11846;DHT22;5982;37.494;-8.758;2023-11-22T14:32:24;20.40;99.90
11846;DHT22;5982;37.494;-8.758;2023-11-22T14:34:52;20.20;99.90
11846;DHT22;5982;37.494;-8.758;2023-11-22T14:37:21;20.20;99.90
11846;DHT22;5982;37.494;-8.758;2023-11-22T14:39:50;20.30;99.90
11846;DHT22;5982;37.494;-8.758;2023-11-22T14:42:17;20.30;99.90
11846;DHT22;5982;37.494;-8.758;2023-11-22T14:44:45;20.30;99.90
11846;DHT22;5982;37.494;-8.758;2023-11-22T14:47:14;20.40;99.90
11846;DHT22;5982;37.494;-8.758;2023-11-22T14:49:45;20.40;99.90
11846;DHT22;5982;37.494;-8.758;2023-11-22T14:52:12;20.30;99.90
11846;DHT22;5982;37.494;-8.758;2023-11-22T14:54:41;20.30;99.90
11846;DHT22;5982;37.494;-8.758;2023-11-22T14:57:11;20.20;99.90
11846;DHT22;5982;37.494;-8.758;2023-11-22T14:59:42;20.10;99.90
11846;DHT22;5982;37.494;-8.758;2023-11-22T15:02:12;20.10;99.90
11846;DHT22;5982;37.494;-8.758;2023-11-22T15:04:41;20.10;99.90
11846;DHT22;5982;37.494;-8.758;2023-11-22T15:07:08;20.10;99.90
11846;DHT22;5982;37.494;-8.758;2023-11-22T15:09:37;20.10;99.90
11846;DHT22;5982;37.494;-8.758;2023-11-22T15:12:05;20.20;99.90
11846;DHT22;5982;37.494;-8.758;2023-11-22T15:14:36;20.30;99.90
11846;DHT22;5982;37.494;-8.758;2023-11-22T15:17:03;20.30;99.90
11846;DHT22;5982;37.494;-8.758;2023-11-22T15:19:31;20.30;99.90
11846;DHT22;5982;37.494;-8.758;2023-11-22T15:22:01;20.30;99.90
11846;DHT22;5982;37.494;-8.758;2023-11-22T15:24:29;20.30;99.90
11846;DHT22;5982;37.494;-8.758;2023-11-22T15:26:57;20.30;99.90
11846;DHT22;5982;37.494;-8.758;2023-11-22T15:29:24;20.30;99.90
11846;DHT22;5982;37.494;-8.758;2023-11-22T15:31:53;20.20;99.90
11846;DHT22;5982;37.494;-8.758;2023-11-22T15:34:21;20.20;99.90
11846;DHT22;5982;37.494;-8.758;2023-11-22T15:36:49;20.00;99.90
11846;DHT22;5982;37.494;-8.758;2023-11-22T15:39:17;19.80;99.90
11846;DHT22;5982;37.494;-8.758;2023-11-22T15:41:47;19.60;99.90
11846;DHT22;5982;37.494;-8.758;2023-11-22T15:44:15;19.30;99.90